Terminal Aerodrome Forecast
Issued by NWS Louisville, KY

Home | Current Version | Previous Version | Graphics & Text | Print | Product List | Glossary On
Versions: 1 2 3 4 5 6 7 8 9 10 11 12 13 14 15 16
856
FTUS43 KLMK 022322
TAFSDF
TAF
KSDF 022322Z 0300/0406 33007KT P6SM BKN035
     FM030400 32004KT P6SM SCT035 BKN250
     FM031800 35005KT P6SM SCT035 BKN150=

USA.gov is the U.S. government's official web portal to all federal, state and local government web resources and services.